Zellwood, Florida
Current Conditions -  °F | °C
As of 8:53 AM on Thursday 30 Oct 2014 (Local Time) from KLEE Reporting Station
Broken Clouds Broken Clouds  
Wind Chill: 71°   Ceiling: 12000
Heat Index: 71°   Visibility: 10mi
Dew Point: 65°   Wind: 3mph
Humidity: 81%   Direction: 50°NE
Pressure: 30"   Gusts: NA
Location:  28.73°N, 81.6°W
Report Text: KLEE 301253Z 05003KT 10SM BKN120 22/18 A3000 RMK AO2 SLP157 T02170183
Loading
Personal Weather Stations






























Interactive Weather Map
Tropical Storm Tracking
New forecast layout! Learn more

10-Day Weather Forecast

Advertisements
Track Severe Weather on mobile